الصفحة الرئيسية
METAR-TAF:

METAR-TAF

مطار :

كوناكري, غينيا

مطار كوناكري الدولي

دائرة عرض: 09-34N, خط طول: 013-37W, ارتفاع: 26 متر

مراقبة الطقس الحالي

تاريخ ووقت الإصدار 45 دقيقة قبل الساعة 21:00UTC
ريح 6 عقدة من الجنوب/الجنوب الغربي
درجة الحرارة 25°درجة مئوية
الرطوبة 89%
ضغط 1010 hPa
الرؤية: 4000 متر
غشاء

METAR: GUCY 182100Z 21006KT 4000 BR NSC 25/23 Q1010 NOSIG

زمن: 21:45 (21:45 UTC)

توقعات

تاريخ ووقت الإصدار 4ساعات و 45 دقيقة قبل الساعة 17:00UTC
التوقعات صالحة من18 الساعة 18 UTC إلى 19 الساعة 24 UTC
ريح 6 عقدة من الغرب/الجنوب الغربي
الرؤية: 5000 متر
العجاج
أصبح
من 18 الساعة 19 UTC إلى 18 الساعة 23 UTC
الرؤية: 4000 متر
غيوم قليلة على ارتفاع 1500 قدم
العجاج
مؤقت
من 19 الساعة 03 UTC إلى 19 الساعة 08 UTC
ريح 2 عقدةمن اتجاهات متغيرة
الرؤية: 3000 متر
غيوم متفرقة على ارتفاع 1500 قدم
غيوم متفرقة على ارتفاع 11000 قدم
غشاء

TAF: GUCY 181700Z 1818/1924 24006KT 5000 HZ NSC BECMG 1819/1823 35006 4000 HZ FEW015 TEMPO 1903/1908 VRB02KT 3000 BR SCT015 SCT110

أرصاد الطقس والتوقعات من أكثر من 4000 مطار (تقارير الطقس للمطار METAR والتنبؤ بالطقس بالمطارTAF).

المحطات المتاحة هي النقط الصفراء والحمراء على الخريطة.

حرك المؤشر فوق النقطة لمعرفة اسم المحطة.

ثم انقر لمعرفة أرصاد وتوقعات الطقس.

لتغيير الخارطة: اضغط على الأزرار الخضراء مع رمز الصليب الأسود للتكبير. على الزر الأخضر مع شرطة للتصغير، أو على الأسهم الخضراء للخرائط المجاورة.


METAR-TAF: